Time;durP1;ratioP1;P1;durP2;ratioP2;P2;SDS_P1;SDS_P2;PMS_P1;PMS_P2;Temp;Humidity;BMP_temperature;BMP_pressure;BME280_temperature;BME280_humidity;BME280_pressure;Samples;Min_cycle;Max_cycle;Signal;HPM_P1;HPM_P2
2021/12/20 00:00:48;;;;;;;23.33;3.17;;;5.50;99.90;;;;;;5058302;28;20041;-48
2021/12/20 00:03:15;;;;;;;27.38;3.58;;;5.50;99.90;;;;;;5058831;28;20067;-47
2021/12/20 00:05:41;;;;;;;17.33;3.05;;;5.50;99.90;;;;;;5071468;28;20040;-48
2021/12/20 00:08:07;;;;;;;22.20;2.97;;;5.50;99.90;;;;;;5053940;28;20364;-47
2021/12/20 00:10:34;;;;;;;23.50;3.50;;;5.50;99.90;;;;;;5032121;28;20060;-48
2021/12/20 00:13:00;;;;;;;20.15;3.60;;;5.50;99.90;;;;;;5050007;28;20063;-52
2021/12/20 00:15:26;;;;;;;18.60;3.53;;;5.50;99.90;;;;;;5042748;28;20044;-48
2021/12/20 00:17:52;;;;;;;18.40;3.60;;;5.50;99.90;;;;;;5069622;28;20048;-52
2021/12/20 00:20:19;;;;;;;19.20;2.85;;;5.50;99.90;;;;;;5060984;28;20359;-48
2021/12/20 00:22:46;;;;;;;17.23;2.90;;;5.50;99.90;;;;;;5064255;28;20426;-48
2021/12/20 00:25:12;;;;;;;16.65;3.25;;;5.40;99.90;;;;;;5059662;28;20052;-47
2021/12/20 00:27:38;;;;;;;11.85;2.22;;;5.40;99.90;;;;;;5069711;28;20449;-50
2021/12/20 00:30:06;;;;;;;21.55;2.80;;;5.40;99.90;;;;;;5070919;28;20040;-48
2021/12/20 00:32:32;;;;;;;18.13;2.92;;;5.40;99.90;;;;;;5070985;28;20037;-48
2021/12/20 00:34:58;;;;;;;17.35;2.72;;;5.30;99.90;;;;;;5069264;28;20037;-48
2021/12/20 00:40:29;;;;;;;12.88;3.08;;;5.20;99.90;;;;;;5026416;28;20049;-47
2021/12/20 00:43:00;;;;;;;16.67;2.85;;;5.20;99.90;;;;;;5005803;28;20045;-48
2021/12/20 00:45:31;;;;;;;20.38;3.20;;;5.20;99.90;;;;;;5046923;28;20124;-47
2021/12/20 00:47:58;;;;;;;15.27;2.65;;;5.10;99.90;;;;;;5069166;28;20044;-48
2021/12/20 00:50:25;;;;;;;20.73;2.47;;;5.20;99.90;;;;;;5069313;28;20589;-48
2021/12/20 00:52:52;;;;;;;16.92;2.78;;;5.20;99.90;;;;;;5067630;28;20101;-48
2021/12/20 00:55:21;;;;;;;14.80;2.90;;;5.40;99.90;;;;;;5089645;28;20048;-48
2021/12/20 00:57:49;;;;;;;19.30;2.58;;;5.50;99.90;;;;;;5058873;28;20553;-47
2021/12/20 01:00:24;;;;;;;12.20;1.77;;;5.60;99.90;;;;;;5049598;28;20041;-48
2021/12/20 01:02:51;;;;;;;11.15;2.13;;;5.60;99.90;;;;;;5050640;28;20048;-50
2021/12/20 01:05:17;;;;;;;17.58;2.03;;;5.60;99.90;;;;;;5064437;28;20112;-51
2021/12/20 01:07:43;;;;;;;17.65;3.08;;;5.60;99.90;;;;;;5056543;28;20033;-47
2021/12/20 01:10:10;;;;;;;13.38;2.50;;;5.50;99.90;;;;;;5049190;28;20059;-48
2021/12/20 01:12:49;;;;;;;16.30;2.72;;;5.40;99.90;;;;;;5061845;28;20096;-48
2021/12/20 01:15:20;;;;;;;13.80;2.50;;;5.40;99.90;;;;;;5082246;28;20041;-50
2021/12/20 01:17:46;;;;;;;12.65;1.83;;;5.30;99.90;;;;;;5050990;28;20049;-47
2021/12/20 01:20:12;;;;;;;11.98;1.75;;;5.20;99.90;;;;;;5060258;28;20395;-50
2021/12/20 01:22:42;;;;;;;14.60;2.10;;;5.20;99.90;;;;;;5065576;28;20064;-48
2021/12/20 01:25:08;;;;;;;13.95;1.88;;;5.10;99.90;;;;;;5049236;28;20118;-47
2021/12/20 01:27:34;;;;;;;15.95;1.70;;;5.00;99.90;;;;;;5065823;28;20040;-47
2021/12/20 01:30:00;;;;;;;10.98;1.60;;;5.00;99.90;;;;;;5051924;28;20119;-48
2021/12/20 01:32:27;;;;;;;10.38;2.42;;;4.90;99.90;;;;;;5068473;28;20036;-48
2021/12/20 01:34:53;;;;;;;15.48;1.65;;;4.90;99.90;;;;;;5069899;28;20496;-47
2021/12/20 01:37:19;;;;;;;16.02;1.65;;;4.80;99.90;;;;;;5034667;28;20093;-47
2021/12/20 01:39:45;;;;;;;11.20;1.70;;;4.80;99.90;;;;;;5069533;28;20141;-48
2021/12/20 01:42:17;;;;;;;10.70;1.80;;;4.70;99.90;;;;;;5069824;28;20427;-47
2021/12/20 01:44:44;;;;;;;9.40;1.77;;;4.60;99.90;;;;;;5069608;28;20049;-48
2021/12/20 01:47:10;;;;;;;;;;;4.60;99.90;;;;;;5069563;28;20135;-47
2021/12/20 01:49:44;;;;;;;9.50;2.33;;;4.50;99.90;;;;;;5070098;28;20381;-48
2021/12/20 01:52:14;;;;;;;11.15;1.20;;;4.40;99.90;;;;;;5068442;28;20111;-47
2021/12/20 01:54:40;;;;;;;11.82;1.52;;;4.30;99.90;;;;;;5068496;28;20149;-47
2021/12/20 01:57:06;;;;;;;11.43;1.65;;;4.20;99.90;;;;;;5064448;28;20044;-47
2021/12/20 01:59:32;;;;;;;10.88;1.77;;;4.20;99.90;;;;;;5049857;28;20450;-48
2021/12/20 02:01:58;;;;;;;14.02;1.75;;;4.20;99.90;;;;;;5047614;28;20096;-48
2021/12/20 02:04:24;;;;;;;13.38;1.50;;;4.10;99.90;;;;;;5045170;28;20052;-48
2021/12/20 02:06:50;;;;;;;11.52;1.70;;;4.10;99.90;;;;;;5045201;28;20036;-47
2021/12/20 02:09:19;;;;;;;7.18;1.33;;;4.00;99.90;;;;;;5069096;28;20190;-47
2021/12/20 02:11:48;;;;;;;8.98;1.48;;;4.00;99.90;;;;;;5068698;28;20135;-46
2021/12/20 02:14:16;;;;;;;13.65;1.77;;;3.90;99.90;;;;;;5069000;28;20137;-48
2021/12/20 02:16:43;;;;;;;9.60;1.38;;;3.90;99.90;;;;;;5063313;28;20048;-47
2021/12/20 02:19:16;;;;;;;11.20;1.30;;;3.80;99.90;;;;;;5048728;28;20048;-47
2021/12/20 02:21:44;;;;;;;11.13;1.38;;;3.80;99.90;;;;;;5069126;28;20060;-46
2021/12/20 02:24:11;;;;;;;6.72;1.23;;;3.80;99.90;;;;;;5067323;28;20059;-48
2021/12/20 02:26:37;;;;;;;7.15;2.05;;;3.70;99.90;;;;;;5051099;28;20052;-47
2021/12/20 02:29:07;;;;;;;8.57;1.25;;;3.70;99.90;;;;;;5067946;28;20146;-47
2021/12/20 02:40:06;;;;;;;5.32;1.48;;;3.70;99.90;;;;;;5033756;28;20045;-46
2021/12/20 02:42:36;;;;;;;10.20;1.13;;;3.60;99.90;;;;;;5058040;28;20048;-47
2021/12/20 02:45:22;;;;;;;8.80;1.30;;;3.60;99.90;;;;;;5067499;28;20037;-47
2021/12/20 02:47:49;;;;;;;12.65;1.50;;;3.60;99.90;;;;;;5068972;28;20041;-46
2021/12/20 02:50:15;;;;;;;8.98;1.40;;;3.60;99.90;;;;;;5066862;28;20044;-50
2021/12/20 02:52:42;;;;;;;6.13;1.17;;;3.60;99.90;;;;;;5066435;28;20131;-51
2021/12/20 02:55:10;;;;;;;8.55;1.50;;;3.60;99.90;;;;;;5054037;28;20052;-48
2021/12/20 02:57:36;;;;;;;;;;;3.70;99.90;;;;;;5074079;28;20063;-47
2021/12/20 03:00:06;;;;;;;11.13;1.85;;;3.70;99.90;;;;;;5072542;28;19916;-47
2021/12/20 03:02:32;;;;;;;6.05;1.27;;;3.70;99.90;;;;;;5054685;28;20196;-47
2021/12/20 03:04:58;;;;;;;12.25;1.95;;;3.70;99.90;;;;;;5101947;28;20132;-48
2021/12/20 03:07:27;;;;;;;9.48;1.33;;;3.70;99.90;;;;;;5059532;28;20654;-47
2021/12/20 03:10:02;;;;;;;6.80;1.15;;;3.70;99.90;;;;;;5054827;28;20128;-47
2021/12/20 03:12:31;;;;;;;14.30;2.40;;;3.70;99.90;;;;;;5072259;28;20406;-47
2021/12/20 03:15:04;;;;;;;7.57;1.30;;;3.70;99.90;;;;;;5040893;28;20461;-47
2021/12/20 03:17:30;;;;;;;14.40;1.73;;;3.70;99.90;;;;;;5065312;28;20051;-47
2021/12/20 03:19:56;;;;;;;11.98;1.33;;;3.60;99.90;;;;;;5064307;28;20055;-47
2021/12/20 03:22:22;;;;;;;6.47;1.40;;;3.60;99.90;;;;;;5065376;28;20063;-47
2021/12/20 03:24:49;;;;;;;14.45;1.60;;;3.50;99.90;;;;;;5058889;28;20119;-48
2021/12/20 03:27:15;;;;;;;6.50;1.30;;;3.50;99.90;;;;;;5058310;28;20041;-48
2021/12/20 03:29:41;;;;;;;10.38;1.60;;;3.50;99.90;;;;;;5050822;28;20413;-47
2021/12/20 03:32:07;;;;;;;13.35;1.77;;;3.40;99.90;;;;;;5054861;28;20076;-49
2021/12/20 03:34:34;;;;;;;10.52;1.33;;;3.40;99.90;;;;;;5056826;28;20416;-48
2021/12/20 03:36:59;;;;;;;13.90;1.30;;;3.30;99.90;;;;;;5070878;28;20123;-47
2021/12/20 03:39:25;;;;;;;13.88;2.28;;;3.30;99.90;;;;;;5034394;28;20144;-48
2021/12/20 03:41:51;;;;;;;13.48;1.85;;;3.30;99.90;;;;;;5050538;28;20053;-48
2021/12/20 03:44:17;;;;;;;6.90;1.00;;;3.20;99.90;;;;;;5040042;28;20041;-47
2021/12/20 03:46:43;;;;;;;10.18;1.20;;;3.10;99.90;;;;;;5071647;28;20040;-47
2021/12/20 03:49:09;;;;;;;10.45;1.70;;;3.20;99.90;;;;;;5065974;28;20139;-46
2021/12/20 03:51:36;;;;;;;14.27;1.67;;;3.00;99.90;;;;;;5056881;28;20037;-47
2021/12/20 03:54:03;;;;;;;13.40;1.77;;;3.00;99.90;;;;;;5066805;28;20092;-49
2021/12/20 03:56:29;;;;;;;8.75;1.27;;;3.00;99.90;;;;;;5063211;28;20290;-47
2021/12/20 03:58:55;;;;;;;8.75;1.48;;;2.90;99.90;;;;;;5071155;28;20044;-48
2021/12/20 04:01:22;;;;;;;8.80;1.35;;;2.90;99.90;;;;;;5104228;28;20076;-46
2021/12/20 04:03:51;;;;;;;15.60;1.92;;;2.80;99.90;;;;;;5049857;28;20052;-47
2021/12/20 04:06:17;;;;;;;5.25;1.13;;;2.80;99.90;;;;;;5063728;28;20127;-47
2021/12/20 04:08:46;;;;;;;9.10;1.20;;;2.80;99.90;;;;;;5051171;28;20048;-47
2021/12/20 04:11:12;;;;;;;8.35;1.33;;;2.80;99.90;;;;;;5051143;28;20045;-48
2021/12/20 04:13:37;;;;;;;9.77;1.63;;;2.80;99.90;;;;;;5071442;28;20048;-47
2021/12/20 04:16:04;;;;;;;6.45;1.13;;;2.70;99.90;;;;;;5040107;28;20076;-49
2021/12/20 04:18:31;;;;;;;17.55;1.55;;;2.70;99.90;;;;;;5062934;28;20077;-47
2021/12/20 04:20:57;;;;;;;13.43;2.65;;;2.70;99.90;;;;;;5066004;28;20068;-47
2021/12/20 04:23:23;;;;;;;9.05;1.38;;;2.60;99.90;;;;;;5052919;28;20045;-47
2021/12/20 04:25:49;;;;;;;12.43;1.75;;;2.60;99.90;;;;;;5068864;28;20603;-46
2021/12/20 04:28:15;;;;;;;8.45;1.60;;;2.50;99.90;;;;;;5059108;28;20467;-47
2021/12/20 04:30:41;;;;;;;6.78;1.50;;;2.50;99.90;;;;;;5038924;28;20123;-49
2021/12/20 04:33:07;;;;;;;7.43;1.00;;;2.40;99.90;;;;;;5083708;28;20118;-48
2021/12/20 04:35:33;;;;;;;15.60;1.80;;;2.40;99.90;;;;;;5063661;28;20056;-47
2021/12/20 04:38:00;;;;;;;12.65;1.70;;;2.30;99.90;;;;;;5049980;28;20116;-47
2021/12/20 04:40:27;;;;;;;17.75;1.67;;;2.30;99.90;;;;;;5052333;28;20069;-47
2021/12/20 04:42:56;;;;;;;15.23;1.70;;;2.30;99.90;;;;;;5045189;28;20096;-46
2021/12/20 04:45:23;;;;;;;9.52;1.05;;;2.20;99.90;;;;;;5056553;28;20040;-47
2021/12/20 04:47:57;;;;;;;7.85;1.40;;;2.20;99.90;;;;;;5016791;28;20041;-48
2021/12/20 04:50:23;;;;;;;8.77;1.33;;;2.10;99.90;;;;;;5051047;28;20047;-48
2021/12/20 04:52:50;;;;;;;7.63;1.30;;;2.00;99.90;;;;;;5049900;28;20040;-47
2021/12/20 04:55:16;;;;;;;7.22;1.45;;;1.90;99.90;;;;;;5051008;28;20110;-46
2021/12/20 04:57:43;;;;;;;10.15;1.67;;;1.90;99.90;;;;;;5050350;28;20037;-47
2021/12/20 05:00:13;;;;;;;9.35;1.52;;;1.90;99.90;;;;;;5050555;28;20060;-48
2021/12/20 05:02:39;;;;;;;9.05;1.65;;;1.90;99.90;;;;;;5050868;28;20052;-48
2021/12/20 05:05:07;;;;;;;6.47;1.05;;;1.90;99.90;;;;;;5066117;28;20111;-48
2021/12/20 05:07:33;;;;;;;13.45;1.73;;;1.80;99.90;;;;;;5058008;28;20065;-49
2021/12/20 05:10:01;;;;;;;8.02;1.42;;;1.80;99.90;;;;;;5055249;28;20046;-47
2021/12/20 05:12:28;;;;;;;5.25;1.27;;;1.80;99.90;;;;;;5070260;28;20164;-47
2021/12/20 05:14:54;;;;;;;11.48;1.92;;;1.70;99.90;;;;;;5051914;28;20505;-48
2021/12/20 05:17:20;;;;;;;6.78;1.60;;;1.70;99.90;;;;;;5035035;28;20052;-47
2021/12/20 05:19:46;;;;;;;12.23;1.98;;;1.70;99.90;;;;;;5070534;28;20040;-47
2021/12/20 05:22:12;;;;;;;8.93;1.55;;;1.60;99.90;;;;;;5070763;28;20041;-46
2021/12/20 05:24:39;;;;;;;8.83;1.23;;;1.70;99.90;;;;;;5068251;28;20486;-47
2021/12/20 05:27:05;;;;;;;10.68;1.52;;;1.60;99.90;;;;;;5068465;28;20045;-48
2021/12/20 05:29:32;;;;;;;9.02;1.27;;;1.60;99.90;;;;;;5057014;28;20106;-46
2021/12/20 05:32:02;;;;;;;8.25;1.27;;;1.60;99.90;;;;;;5050017;28;20068;-47
2021/12/20 05:34:31;;;;;;;8.90;1.23;;;1.60;99.90;;;;;;5056621;28;20047;-46
2021/12/20 05:36:57;;;;;;;11.00;1.45;;;1.50;99.90;;;;;;5070565;28;20378;-47
2021/12/20 05:39:23;;;;;;;11.32;1.83;;;1.50;99.90;;;;;;5038490;28;20048;-49
2021/12/20 05:41:49;;;;;;;6.75;1.48;;;1.50;99.90;;;;;;5069095;28;20067;-47
2021/12/20 05:44:14;;;;;;;8.10;1.23;;;1.40;99.90;;;;;;5068427;28;20841;-47
2021/12/20 05:46:40;;;;;;;10.50;1.70;;;1.40;99.90;;;;;;5070190;28;20032;-46
2021/12/20 05:49:06;;;;;;;6.35;1.13;;;1.40;99.90;;;;;;5069753;28;20514;-48
2021/12/20 05:51:35;;;;;;;9.50;1.25;;;1.40;99.90;;;;;;5035248;28;20044;-48
2021/12/20 05:54:01;;;;;;;9.60;1.42;;;1.30;99.90;;;;;;5069455;28;20044;-47
2021/12/20 05:56:27;;;;;;;12.30;1.73;;;1.30;99.90;;;;;;5070240;28;20063;-47
2021/12/20 05:58:53;;;;;;;10.50;1.80;;;1.30;99.90;;;;;;5072073;28;20075;-47
2021/12/20 06:01:19;;;;;;;12.38;1.73;;;1.30;99.90;;;;;;5069558;28;20512;-47
2021/12/20 06:03:45;;;;;;;8.40;1.67;;;1.20;99.90;;;;;;5037443;28;20055;-48
2021/12/20 06:06:12;;;;;;;11.05;1.48;;;1.20;99.90;;;;;;5043247;28;20097;-48
2021/12/20 06:08:38;;;;;;;8.43;1.83;;;1.20;99.90;;;;;;5050844;28;20446;-47
2021/12/20 06:11:04;;;;;;;11.18;1.63;;;1.20;99.90;;;;;;5050346;28;20045;-47
2021/12/20 06:13:30;;;;;;;9.13;2.00;;;1.20;99.90;;;;;;5036080;28;20094;-47
2021/12/20 06:15:55;;;;;;;10.63;1.58;;;1.20;99.90;;;;;;5062078;28;20067;-47
2021/12/20 06:18:21;;;;;;;10.20;1.73;;;1.10;99.90;;;;;;5069064;28;20037;-46
2021/12/20 06:20:47;;;;;;;8.85;1.80;;;1.10;99.90;;;;;;5063428;28;20107;-47
2021/12/20 06:23:13;;;;;;;8.65;1.60;;;1.00;99.90;;;;;;5065293;28;20179;-46
2021/12/20 06:25:39;;;;;;;10.65;1.92;;;1.00;99.90;;;;;;5057374;28;20033;-47
2021/12/20 06:28:05;;;;;;;15.10;2.03;;;1.00;99.90;;;;;;5051883;28;20395;-48
2021/12/20 06:30:31;;;;;;;13.80;1.88;;;1.00;99.90;;;;;;5047997;28;20037;-46
2021/12/20 06:32:57;;;;;;;9.38;2.03;;;0.90;99.90;;;;;;5057713;28;20203;-47
2021/12/20 06:35:23;;;;;;;10.57;1.73;;;1.00;99.90;;;;;;5050176;28;20063;-46
2021/12/20 06:37:59;;;;;;;10.50;1.95;;;0.90;99.90;;;;;;5047893;28;20632;-46
2021/12/20 06:40:26;;;;;;;12.82;2.00;;;0.90;99.90;;;;;;5048216;28;20041;-46
2021/12/20 06:42:52;;;;;;;14.20;2.22;;;0.90;99.90;;;;;;5063197;28;20049;-47
2021/12/20 06:45:18;;;;;;;11.35;1.95;;;0.90;99.90;;;;;;5061327;28;20040;-47
2021/12/20 06:47:46;;;;;;;9.55;2.50;;;0.80;99.90;;;;;;5059862;28;20041;-46
2021/12/20 06:50:12;;;;;;;16.50;2.40;;;0.80;99.90;;;;;;5049116;28;20048;-46
2021/12/20 06:52:38;;;;;;;15.02;2.90;;;0.80;99.90;;;;;;5054571;28;20068;-47
2021/12/20 06:55:05;;;;;;;11.23;2.95;;;;;;;;;;5046695;28;20045;-50
2021/12/20 06:57:31;;;;;;;13.10;2.28;;;0.70;99.90;;;;;;5054727;28;20120;-47
2021/12/20 06:59:57;;;;;;;9.82;2.33;;;0.70;99.90;;;;;;5099892;28;20080;-46
2021/12/20 07:02:23;;;;;;;7.35;2.35;;;0.70;99.90;;;;;;5066282;28;20087;-46
2021/12/20 07:04:50;;;;;;;14.45;2.05;;;0.70;99.90;;;;;;5053412;28;20388;-46
2021/12/20 07:07:17;;;;;;;10.63;2.20;;;0.70;99.90;;;;;;5063626;28;20047;-48
2021/12/20 07:09:42;;;;;;;14.63;2.15;;;0.60;99.90;;;;;;5050300;28;20105;-47
2021/12/20 07:12:09;;;;;;;8.65;2.17;;;0.70;99.90;;;;;;5059225;28;20053;-46
2021/12/20 07:14:35;;;;;;;7.20;2.03;;;0.70;99.90;;;;;;5062243;28;20056;-46
2021/12/20 07:17:01;;;;;;;9.43;2.08;;;0.60;99.90;;;;;;5062232;28;20040;-46
2021/12/20 07:19:27;;;;;;;9.32;1.90;;;0.60;99.90;;;;;;5054156;28;20044;-46
2021/12/20 07:21:53;;;;;;;20.02;3.25;;;0.60;99.90;;;;;;5062843;28;20087;-46
2021/12/20 07:24:19;;;;;;;9.80;3.13;;;0.50;99.90;;;;;;5068718;28;20394;-47
2021/12/20 07:26:45;;;;;;;7.85;3.28;;;0.50;99.90;;;;;;5044637;28;20037;-46
2021/12/20 07:29:12;;;;;;;12.02;3.33;;;0.50;99.90;;;;;;5054235;28;20048;-46
2021/12/20 07:31:38;;;;;;;7.70;3.83;;;0.50;99.90;;;;;;5051127;28;20037;-47
2021/12/20 07:34:07;;;;;;;8.27;3.05;;;0.50;99.90;;;;;;5070913;28;20629;-46
2021/12/20 07:36:33;;;;;;;12.57;3.20;;;0.50;99.90;;;;;;5072271;28;20413;-48
2021/12/20 07:39:00;;;;;;;11.18;2.83;;;0.50;99.90;;;;;;5071987;28;20115;-47
2021/12/20 07:41:26;;;;;;;8.77;2.63;;;0.40;99.90;;;;;;5063241;28;20178;-47
2021/12/20 07:43:52;;;;;;;14.98;2.50;;;0.40;99.90;;;;;;5071906;28;20051;-48
2021/12/20 07:46:19;;;;;;;8.70;2.30;;;0.40;99.90;;;;;;5071904;28;20033;-46
2021/12/20 07:48:46;;;;;;;7.95;2.00;;;0.40;99.90;;;;;;5057271;28;20045;-46
2021/12/20 07:51:12;;;;;;;8.27;1.73;;;0.40;99.90;;;;;;5070801;28;20456;-50
2021/12/20 07:53:38;;;;;;;7.38;2.00;;;0.40;99.90;;;;;;5050604;28;20044;-48
2021/12/20 07:56:04;;;;;;;12.45;2.47;;;0.40;99.90;;;;;;5050163;28;20428;-45
2021/12/20 07:58:31;;;;;;;9.82;2.50;;;0.40;99.90;;;;;;5070215;28;20131;-46
2021/12/20 08:00:58;;;;;;;8.27;2.42;;;0.40;99.90;;;;;;5070017;28;20052;-46
2021/12/20 08:03:24;;;;;;;10.00;2.03;;;0.40;99.90;;;;;;5059460;28;20044;-47
2021/12/20 08:05:51;;;;;;;12.32;2.00;;;0.40;99.90;;;;;;5068983;28;20064;-47
2021/12/20 08:08:17;;;;;;;11.40;1.92;;;0.40;99.90;;;;;;5062194;28;20068;-46
2021/12/20 08:10:42;;;;;;;10.75;1.80;;;0.40;99.90;;;;;;5048260;28;20447;-46
2021/12/20 08:13:10;;;;;;;13.52;1.70;;;0.40;99.90;;;;;;5048463;28;20059;-49
2021/12/20 08:15:36;;;;;;;;;;;0.40;99.90;;;;;;5050872;28;20048;-46
2021/12/20 08:18:02;;;;;;;10.00;1.73;;;0.40;99.90;;;;;;5082566;28;19924;-47
2021/12/20 08:20:28;;;;;;;8.27;2.03;;;0.50;99.90;;;;;;5032355;28;20505;-46
2021/12/20 08:22:54;;;;;;;8.43;2.10;;;0.50;99.90;;;;;;5041460;28;20045;-46
2021/12/20 08:25:20;;;;;;;13.68;2.03;;;0.50;99.90;;;;;;5049840;28;20127;-47
2021/12/20 08:27:47;;;;;;;10.43;1.52;;;0.50;99.90;;;;;;5048874;28;20041;-46
2021/12/20 08:30:13;;;;;;;5.75;1.70;;;0.60;99.90;;;;;;5048842;28;20048;-46
2021/12/20 08:32:39;;;;;;;9.95;1.90;;;0.60;99.90;;;;;;5047387;28;20052;-47
2021/12/20 08:35:07;;;;;;;8.90;2.28;;;0.60;99.90;;;;;;5049084;28;20045;-46
2021/12/20 08:37:33;;;;;;;10.20;1.70;;;0.70;99.90;;;;;;5048275;28;20067;-46
2021/12/20 08:39:59;;;;;;;11.15;2.05;;;0.70;99.90;;;;;;5063734;28;20109;-46
2021/12/20 08:42:26;;;;;;;7.57;1.98;;;0.70;99.90;;;;;;5059941;28;20056;-46
2021/12/20 08:44:52;;;;;;;10.45;1.88;;;1.10;99.90;;;;;;5056693;28;20037;-47
2021/12/20 08:47:20;;;;;;;8.40;1.70;;;0.90;99.90;;;;;;5061093;28;20091;-47
2021/12/20 08:49:46;;;;;;;8.40;1.45;;;0.90;99.90;;;;;;5096039;28;20047;-47
2021/12/20 08:52:12;;;;;;;6.57;1.35;;;0.90;99.90;;;;;;5034283;28;20487;-47
2021/12/20 08:54:38;;;;;;;5.47;1.27;;;1.00;99.90;;;;;;5036151;28;20048;-46
2021/12/20 08:57:05;;;;;;;5.57;1.20;;;1.00;99.90;;;;;;5051358;28;20044;-48
2021/12/20 08:59:31;;;;;;;4.70;1.30;;;1.00;99.90;;;;;;5034394;28;20084;-47
2021/12/20 09:01:59;;;;;;;5.63;1.00;;;1.10;99.90;;;;;;5032825;28;20304;-47
2021/12/20 09:04:25;;;;;;;5.80;1.20;;;1.10;99.90;;;;;;5049216;28;20463;-47
2021/12/20 09:06:51;;;;;;;4.25;1.35;;;1.10;99.90;;;;;;5030516;28;20049;-46
2021/12/20 09:09:18;;;;;;;3.33;1.20;;;1.20;99.90;;;;;;5048115;28;20064;-46
2021/12/20 09:11:44;;;;;;;9.73;1.42;;;1.20;99.90;;;;;;5047812;28;20053;-49
2021/12/20 09:14:12;;;;;;;7.33;1.57;;;1.30;99.90;;;;;;5031229;28;20053;-47
2021/12/20 09:16:38;;;;;;;10.45;1.55;;;1.30;99.90;;;;;;5053981;28;20037;-47
2021/12/20 09:19:04;;;;;;;7.40;2.03;;;1.40;99.90;;;;;;5054988;28;20041;-47
2021/12/20 09:21:30;;;;;;;9.95;1.55;;;1.50;99.90;;;;;;5049503;28;20037;-47
2021/12/20 09:23:56;;;;;;;2.88;0.98;;;1.50;99.90;;;;;;5058533;28;20441;-47
2021/12/20 09:26:23;;;;;;;5.65;1.13;;;1.60;99.90;;;;;;5058397;28;20079;-48
2021/12/20 09:28:50;;;;;;;9.07;1.20;;;1.60;99.90;;;;;;5049589;28;20069;-46
2021/12/20 09:31:16;;;;;;;8.82;1.65;;;1.70;99.90;;;;;;5031229;28;20422;-47
2021/12/20 09:33:42;;;;;;;9.43;1.73;;;1.70;99.90;;;;;;5047582;28;20406;-47
2021/12/20 09:36:08;;;;;;;8.82;2.13;;;1.80;99.90;;;;;;5030937;28;20048;-46
2021/12/20 09:38:34;;;;;;;12.35;2.22;;;1.90;99.90;;;;;;5033919;28;20044;-47
2021/12/20 09:43:36;;;;;;;13.10;2.63;;;2.00;99.90;;;;;;5056066;28;20060;-47
2021/12/20 09:46:03;;;;;;;13.75;2.55;;;2.10;99.90;;;;;;5052398;28;20044;-49
2021/12/20 09:48:29;;;;;;;18.75;2.70;;;2.20;99.90;;;;;;5061302;28;20066;-47
2021/12/20 09:50:57;;;;;;;19.23;2.33;;;2.20;99.90;;;;;;5048616;28;20402;-49
2021/12/20 09:53:23;;;;;;;9.68;2.10;;;2.30;99.90;;;;;;5054879;28;20120;-49
2021/12/20 09:55:51;;;;;;;10.85;3.58;;;2.40;99.90;;;;;;5057315;28;20048;-49
2021/12/20 09:58:21;;;;;;;12.57;2.70;;;2.50;99.90;;;;;;5053739;28;20070;-48
2021/12/20 10:00:48;;;;;;;20.05;4.05;;;2.50;99.90;;;;;;5064614;28;20517;-49
2021/12/20 10:03:23;;;;;;;11.55;3.17;;;2.70;99.90;;;;;;5057024;28;20124;-48
2021/12/20 10:05:55;;;;;;;13.70;3.30;;;2.70;99.90;;;;;;5060396;28;20602;-47
2021/12/20 10:08:35;;;;;;;21.95;3.10;;;2.80;99.90;;;;;;5050733;28;20371;-50
2021/12/20 10:11:16;;;;;;;13.40;2.80;;;2.90;99.90;;;;;;5067150;28;20071;-51
2021/12/20 10:13:42;;;;;;;21.25;3.47;;;3.00;99.90;;;;;;5067641;28;20055;-50
2021/12/20 10:16:20;;;;;;;13.38;3.70;;;3.10;99.90;;;;;;5047875;28;20052;-51
2021/12/20 10:18:48;;;;;;;18.10;3.60;;;3.20;99.90;;;;;;5049931;28;20063;-46
2021/12/20 10:21:15;;;;;;;16.15;4.18;;;3.30;99.90;;;;;;5047709;28;20515;-48
2021/12/20 10:23:47;;;;;;;15.43;3.22;;;3.40;99.90;;;;;;5049421;28;20044;-48
2021/12/20 10:26:19;;;;;;;17.08;3.33;;;3.40;99.90;;;;;;5048134;28;20430;-48
2021/12/20 10:28:49;;;;;;;15.75;3.83;;;3.50;99.90;;;;;;5063910;28;20043;-50
2021/12/20 10:31:27;;;;;;;21.50;3.90;;;3.60;99.90;;;;;;5058350;28;20044;-51
2021/12/20 10:33:59;;;;;;;13.93;2.72;;;3.70;99.90;;;;;;5065336;28;20044;-50
2021/12/20 10:36:25;;;;;;;16.38;3.65;;;3.70;99.90;;;;;;5054517;28;20073;-48
2021/12/20 10:38:56;;;;;;;17.70;3.07;;;3.80;99.90;;;;;;5068092;28;20040;-48
2021/12/20 10:41:39;;;;;;;17.95;3.53;;;3.90;99.90;;;;;;5053860;28;20053;-52
2021/12/20 10:44:24;;;;;;;17.00;3.53;;;4.00;99.90;;;;;;5069339;28;20056;-49
2021/12/20 10:46:53;;;;;;;14.75;3.38;;;4.10;99.90;;;;;;5043825;28;20467;-51
2021/12/20 10:49:29;;;;;;;21.63;3.60;;;4.20;99.90;;;;;;5060823;28;20095;-51
2021/12/20 10:51:56;;;;;;;15.35;3.63;;;4.30;99.90;;;;;;5054206;28;20044;-50
2021/12/20 10:54:29;;;;;;;15.93;3.38;;;4.30;99.90;;;;;;5066365;28;20501;-49
2021/12/20 10:57:01;;;;;;;16.88;3.65;;;4.40;99.90;;;;;;5053099;28;20048;-49
2021/12/20 10:59:29;;;;;;;12.05;3.75;;;4.50;99.90;;;;;;5056886;28;20071;-49
2021/12/20 11:04:57;;;;;;;12.73;3.30;;;4.70;99.90;;;;;;5097061;28;20049;-48
2021/12/20 11:09:59;;;;;;;14.43;3.60;;;4.80;99.90;;;;;;5058630;28;20072;-47
2021/12/20 11:12:32;;;;;;;18.48;3.55;;;4.90;99.90;;;;;;5071062;28;20502;-48
2021/12/20 11:15:03;;;;;;;16.17;3.80;;;4.90;99.90;;;;;;5066951;28;20063;-47
2021/12/20 11:21:14;;;;;;;19.08;3.40;;;5.10;99.90;;;;;;5059619;28;20177;-47
2021/12/20 11:23:40;;;;;;;18.30;3.42;;;5.20;99.90;;;;;;5054198;28;20071;-50
2021/12/20 11:26:06;;;;;;;15.20;2.95;;;5.20;99.90;;;;;;5059650;28;20643;-47
2021/12/20 11:28:33;;;;;;;17.08;3.65;;;5.30;99.90;;;;;;5064922;28;20868;-48
2021/12/20 11:31:00;;;;;;;16.92;3.53;;;5.40;99.90;;;;;;5048696;28;20028;-47
2021/12/20 11:33:26;;;;;;;12.25;3.05;;;5.40;99.90;;;;;;5061756;28;20058;-50
2021/12/20 11:35:53;;;;;;;15.13;3.22;;;5.50;99.90;;;;;;5048703;28;20040;-49
2021/12/20 11:38:19;;;;;;;17.58;2.88;;;5.50;99.90;;;;;;5066899;28;20139;-48
2021/12/20 11:40:45;;;;;;;16.08;3.10;;;5.50;99.90;;;;;;5052452;28;20040;-48
2021/12/20 11:43:12;;;;;;;13.35;2.78;;;5.60;99.90;;;;;;5067449;28;20117;-47
2021/12/20 11:45:39;;;;;;;16.90;3.15;;;5.60;99.90;;;;;;5067568;28;20114;-50
2021/12/20 11:48:12;;;;;;;14.80;3.08;;;5.60;99.90;;;;;;5065496;28;20036;-47
2021/12/20 11:50:41;;;;;;;11.60;2.00;;;5.70;99.90;;;;;;5063895;28;20043;-48
2021/12/20 11:53:10;;;;;;;16.58;2.72;;;5.70;99.90;;;;;;5065751;28;20040;-47
2021/12/20 11:55:37;;;;;;;13.70;3.50;;;5.70;99.90;;;;;;5094437;28;20044;-47
2021/12/20 11:58:14;;;;;;;13.95;3.35;;;5.80;99.90;;;;;;5057695;28;20044;-47
2021/12/20 12:00:47;;;;;;;16.65;3.25;;;5.80;99.90;;;;;;5086660;28;20095;-49
2021/12/20 12:03:18;;;;;;;11.60;3.63;;;5.80;99.90;;;;;;5048832;28;20131;-46
2021/12/20 12:05:56;;;;;;;16.73;3.42;;;5.90;99.90;;;;;;5060598;28;20137;-46
2021/12/20 12:12:22;;;;;;;14.80;3.35;;;5.90;99.90;;;;;;5058545;28;20067;-47
2021/12/20 12:15:06;;;;;;;12.05;3.30;;;5.90;99.90;;;;;;5049763;28;20123;-47
2021/12/20 12:17:53;;;;;;;14.63;3.03;;;5.90;99.90;;;;;;5036072;28;20130;-48
2021/12/20 12:20:36;;;;;;;16.70;2.90;;;6.00;99.90;;;;;;5066259;28;20041;-47
2021/12/20 12:23:12;;;;;;;94.10;52.58;;;6.00;99.90;;;;;;5060515;28;20094;-51
2021/12/20 12:25:53;;;;;;;14.82;5.10;;;6.00;99.90;;;;;;5055250;28;20099;-49
2021/12/20 12:28:23;;;;;;;20.73;7.50;;;6.10;99.90;;;;;;5050201;28;20045;-47
2021/12/20 12:31:12;;;;;;;13.40;5.55;;;6.10;99.90;;;;;;5051296;28;20041;-50
2021/12/20 12:33:40;;;;;;;9.40;3.00;;;6.10;99.90;;;;;;5058421;28;20612;-47
2021/12/20 12:36:09;;;;;;;14.25;3.83;;;6.20;99.90;;;;;;5070763;28;20075;-48
2021/12/20 12:38:57;;;;;;;25.08;10.77;;;6.30;99.90;;;;;;5065223;28;20502;-49
2021/12/20 12:41:27;;;;;;;11.95;3.28;;;6.30;99.90;;;;;;5065010;28;20379;-47
2021/12/20 12:44:16;;;;;;;6.32;1.60;;;6.30;99.90;;;;;;5083410;28;20509;-47
2021/12/20 12:46:49;;;;;;;6.35;2.30;;;6.30;99.90;;;;;;5050588;28;20639;-48
2021/12/20 12:49:26;;;;;;;8.45;2.47;;;6.30;99.90;;;;;;5083352;28;20045;-48
2021/12/20 12:52:16;;;;;;;8.98;2.83;;;6.40;99.90;;;;;;5054253;28;20480;-48
2021/12/20 12:55:02;;;;;;;9.82;2.25;;;6.30;99.90;;;;;;5049501;28;20048;-49
2021/12/20 12:57:40;;;;;;;13.98;2.53;;;6.40;99.90;;;;;;5055802;28;20150;-50
2021/12/20 13:00:13;;;;;;;10.15;2.55;;;6.40;99.90;;;;;;5067569;28;20049;-47
2021/12/20 13:02:42;;;;;;;12.85;4.65;;;6.50;99.90;;;;;;5066451;28;20041;-51
2021/12/20 13:05:17;;;;;;;23.88;15.60;;;6.50;99.90;;;;;;5063861;28;20048;-51
2021/12/20 13:08:09;;;;;;;8.50;3.25;;;6.50;99.90;;;;;;5067473;28;20032;-48
2021/12/20 13:10:41;;;;;;;7.32;2.83;;;6.50;99.90;;;;;;5065167;28;20045;-49
2021/12/20 13:13:29;;;;;;;9.43;2.90;;;6.50;99.90;;;;;;5067527;28;20049;-48
2021/12/20 13:16:02;;;;;;;11.15;3.03;;;6.50;99.90;;;;;;5069683;28;20037;-52
2021/12/20 13:18:33;;;;;;;10.80;2.60;;;6.60;99.90;;;;;;5049017;28;20032;-51
2021/12/20 13:21:03;;;;;;;9.95;2.90;;;6.60;99.90;;;;;;5050908;28;20067;-49
2021/12/20 13:23:35;;;;;;;8.25;2.25;;;6.60;99.90;;;;;;5065437;28;20485;-48